Long Beach, CA (90801)

5:34 AM PDT on August 05, 2015 (GMT -0700)
Belmont Heights | | Change Station
CLOSE
Current Station
Personal Weather Station
Location: Long Beach, CA
Elevation: 62 ft
Nearby Weather Stations

Elev 62 ft 33.77 °N, 118.15 °W | Updated 2 seconds ago

Clear
Clear
66.7 °F
Feels Like 66.7 °F
N
0.0
Wind Variable Wind from NW
Gusts 0.0 mph

Today
High -- | Low -- °F
--% Chance of Precip.
Yesterday
High -- | Low -- °F
Precip. -- in
6:07 AM 7:49 PM
Waning Gibbous, 67% visible
Pressure 29.90 in
Visibility 10.0 miles
Clouds Clear
Dew Point 62 °F
Humidity 84%
Rainfall 0.00 in
Snow Depth Not available.
UV 0.0 out of 12
Pollen 4.40 out of 12
Air Quality Not available.
Flu Activity Not available.
METAR KLGB 051153Z AUTO 00000KT 10SM CLR 21/16 A2990 RMK AO2 SLP124 T02110161 10228 20206 57001 TSNO

More Conditions Fewer Conditions

Pressure 29.90 in
Visibility 10.0 miles
Clouds Clear
Dew Point 62 °F
Humidity 84%
Rainfall 0.00 in
Snow Depth Not available.
UV 0.0 out of 12
Pollen 4.40 out of 12
Air Quality Not available.
Flu Activity Not available.
METAR KLGB 051153Z AUTO 00000KT 10SM CLR 21/16 A2990 RMK AO2 SLP124 T02110161 10228 20206 57001 TSNO

More Conditions Fewer Conditions

10-Day Weather Forecast

×

Almanac

Astronomy

Aug. 05, 2015 Rise Set
Actual Time
Civil Twilight
Nautical Twilight
Astronomical Twilight
Moon
Length of Visible Light
Length of Day
Tomorrow will be .
, % of the Moon is Illuminated

Today's Extremes

State Highs State Lows

Community

WunderPhotos

Upload Photos

1,844,170 photos uploaded!

WunderBlogs® & News

Nearby

Air Quality

  Air Quality AQ Index Pollutant
Not available.

Snow Depth

Station Depth Elevation

Earthquake Activity

City Distance Mag. Time & Date
Minimum magnitude displayed is 2.5.

Coastal Water Temperatures

Place Temperature

Stations

Nearby Weather Stations

Station Location Temp. Windchill Dew Point Humidity Wind Precip. Elev Updated Type